createdAt,value
2022-11-03T00:00:50.426Z,6.48
2022-11-03T00:01:50.611Z,6.72
2022-11-03T00:02:50.761Z,6.48
2022-11-03T00:03:50.796Z,6.48
2022-11-03T00:04:50.952Z,6.24
2022-11-03T00:05:51.109Z,6.4
2022-11-03T00:06:51.216Z,6.4
2022-11-03T00:07:51.355Z,6.48
2022-11-03T00:08:51.502Z,6.4
2022-11-03T00:09:51.617Z,6.48
2022-11-03T00:10:51.757Z,6.4
2022-11-03T00:11:51.903Z,6.64
2022-11-03T00:12:52.013Z,6.64
2022-11-03T00:13:52.120Z,6.72
2022-11-03T00:14:52.267Z,6.72
2022-11-03T00:15:52.410Z,6.8
2022-11-03T00:16:52.517Z,6.72
2022-11-03T00:17:52.666Z,6.48
2022-11-03T00:18:52.777Z,6.72
2022-11-03T00:19:52.922Z,6.72
2022-11-03T00:20:53.085Z,6.48
2022-11-03T00:21:53.231Z,6.64
2022-11-03T00:22:53.384Z,6.72
2022-11-03T00:23:53.536Z,6.48
2022-11-03T00:24:53.675Z,6.48
2022-11-03T00:25:53.826Z,6.48
2022-11-03T00:26:53.930Z,6.64
2022-11-03T00:27:54.123Z,6.72
2022-11-03T00:28:54.233Z,6.72
2022-11-03T00:29:54.367Z,6.64
2022-11-03T00:30:54.516Z,6.64
2022-11-03T00:31:54.599Z,6.64
2022-11-03T00:32:54.753Z,6.64
2022-11-03T00:33:54.863Z,6.48
2022-11-03T00:34:54.950Z,6.64
2022-11-03T00:35:55.127Z,6.4
2022-11-03T00:36:55.254Z,6.08
2022-11-03T00:37:55.417Z,5.92
2022-11-03T00:38:55.557Z,5.44
2022-11-03T00:39:55.697Z,5.2
2022-11-03T00:40:55.863Z,5.12
2022-11-03T00:41:56.015Z,4.88
2022-11-03T00:42:56.170Z,5.04
2022-11-03T00:43:56.304Z,4.88
2022-11-03T00:44:56.502Z,5.6
2022-11-03T00:45:56.608Z,5.44
2022-11-03T00:46:56.713Z,5.84
2022-11-03T00:47:56.872Z,5.52
2022-11-03T00:48:56.973Z,5.6
2022-11-03T00:49:57.149Z,5.92
2022-11-03T00:50:57.301Z,6.08
2022-11-03T00:51:57.445Z,6.08
2022-11-03T00:52:57.533Z,6
2022-11-03T00:53:57.693Z,6.08
2022-11-03T00:54:57.837Z,6.4
2022-11-03T00:55:57.984Z,6.4
2022-11-03T00:56:58.139Z,6.24
2022-11-03T00:57:58.298Z,6.32
2022-11-03T00:58:58.438Z,6.32
2022-11-03T00:59:58.581Z,6.64
2022-11-03T01:00:58.861Z,6.48
2022-11-03T01:01:58.935Z,6.24
2022-11-03T01:02:59.016Z,6.24
2022-11-03T01:03:59.144Z,6.24
2022-11-03T01:04:59.297Z,6.08
2022-11-03T01:05:59.462Z,6
2022-11-03T01:06:59.600Z,6.08
2022-11-03T01:09:00.902Z,6.24
2022-11-03T01:10:00.044Z,6.08
2022-11-03T01:11:00.209Z,6
2022-11-03T01:12:00.360Z,6.24
2022-11-03T01:13:00.519Z,6.08
2022-11-03T01:14:00.666Z,6.08
2022-11-03T01:15:00.802Z,6.32
2022-11-03T01:16:00.989Z,6.32
2022-11-03T01:17:01.081Z,6.32
2022-11-03T01:18:01.222Z,6.32
2022-11-03T01:19:01.336Z,6.48
2022-11-03T01:20:01.428Z,6.4
2022-11-03T01:21:01.590Z,6.48
2022-11-03T01:22:04.108Z,6.64
2022-11-03T01:23:01.887Z,6.48
2022-11-03T01:24:02.022Z,6.4
2022-11-03T01:25:02.180Z,6.4
2022-11-03T01:26:02.338Z,6.64
2022-11-03T01:27:02.487Z,6.64
2022-11-03T01:29:03.563Z,6.72
2022-11-03T01:30:02.900Z,6.64
2022-11-03T01:31:02.988Z,6.48
2022-11-03T01:32:03.160Z,6.64
2022-11-03T01:33:03.393Z,6.48
2022-11-03T01:34:03.414Z,6.4
2022-11-03T01:35:03.578Z,6.48
2022-11-03T01:36:03.705Z,6.64
2022-11-03T01:37:03.849Z,6.72
2022-11-03T01:38:04.003Z,6.72
2022-11-03T01:39:04.158Z,6.72
2022-11-03T01:40:04.714Z,6.72
2022-11-03T01:41:04.451Z,6.72
2022-11-03T01:42:04.933Z,6.8
2022-11-03T01:43:05.013Z,6.88
2022-11-03T01:44:04.810Z,6.8
2022-11-03T01:45:04.973Z,6.8
2022-11-03T01:46:05.135Z,6.8
2022-11-03T01:47:05.260Z,6.88
2022-11-03T01:48:05.384Z,6.8
2022-11-03T01:49:05.525Z,6.88
2022-11-03T01:50:05.626Z,7.04
2022-11-03T01:51:05.779Z,7.04
2022-11-03T01:52:05.874Z,7.04
2022-11-03T01:53:06.277Z,7.12
2022-11-03T01:54:06.138Z,7.12
2022-11-03T01:55:06.297Z,7.04
2022-11-03T01:56:06.436Z,7.12
2022-11-03T01:57:06.608Z,7.12
2022-11-03T01:58:06.750Z,6.88
2022-11-03T01:59:06.899Z,6.88
2022-11-03T02:00:07.051Z,6.88
2022-11-03T02:01:07.198Z,6.88
2022-11-03T02:02:07.400Z,7.04
2022-11-03T02:03:07.756Z,6.88
2022-11-03T02:04:07.598Z,6.8
2022-11-03T02:05:07.749Z,6.88
2022-11-03T02:06:07.954Z,6.64
2022-11-03T02:07:08.014Z,6.48
2022-11-03T02:09:08.965Z,6.48
2022-11-03T02:10:08.403Z,6.48
2022-11-03T02:11:08.499Z,6.64
2022-11-03T02:12:08.656Z,6.64
2022-11-03T02:13:08.901Z,6.4
2022-11-03T02:14:08.907Z,6.32
2022-11-03T02:15:09.077Z,6.32
2022-11-03T02:16:09.215Z,6.24
2022-11-03T02:17:09.366Z,6.08
2022-11-03T02:18:09.518Z,6.24
2022-11-03T02:19:09.676Z,6.24
2022-11-03T02:20:09.837Z,6.08
2022-11-03T02:21:09.924Z,6.08
2022-11-03T02:22:10.103Z,6.24
2022-11-03T02:23:10.340Z,6.24
2022-11-03T02:24:10.383Z,6.08
2022-11-03T02:25:10.534Z,6.24
2022-11-03T02:26:10.634Z,6.08
2022-11-03T02:27:10.790Z,6.08
2022-11-03T02:28:10.930Z,6.24
2022-11-03T02:29:11.096Z,6.24
2022-11-03T02:30:11.199Z,6.24
2022-11-03T02:31:11.333Z,6
2022-11-03T02:32:11.495Z,6.08
2022-11-03T02:33:11.647Z,6.24
2022-11-03T02:34:11.800Z,6.24
2022-11-03T02:35:11.957Z,6
2022-11-03T02:36:12.052Z,6.08
2022-11-03T02:37:12.203Z,6.08
2022-11-03T02:38:12.354Z,6.08
2022-11-03T02:39:12.517Z,6
2022-11-03T02:40:12.659Z,6
2022-11-03T02:41:12.814Z,6
2022-11-03T02:42:12.953Z,5.92
2022-11-03T02:43:13.068Z,5.84
2022-11-03T02:44:13.222Z,5.84
2022-11-03T02:45:14.883Z,5.92
2022-11-03T02:46:13.472Z,5.84
2022-11-03T02:47:13.618Z,6
2022-11-03T02:48:13.732Z,6
2022-11-03T02:49:13.877Z,6.24
2022-11-03T02:50:14.027Z,6.24
2022-11-03T02:51:14.137Z,6.32
2022-11-03T02:52:14.287Z,6.32
2022-11-03T02:53:14.432Z,6.32
2022-11-03T02:54:14.581Z,6.4
2022-11-03T02:55:14.735Z,6.32
2022-11-03T02:56:14.859Z,6.24
2022-11-03T02:57:14.978Z,6.4
2022-11-03T02:58:15.100Z,6.32
2022-11-03T02:59:15.235Z,6.24
2022-11-03T03:00:15.403Z,6.08
2022-11-03T03:01:15.655Z,6
2022-11-03T03:02:15.686Z,6
2022-11-03T03:03:15.807Z,5.92
2022-11-03T03:04:15.950Z,6
2022-11-03T03:05:16.096Z,6.08
2022-11-03T03:06:16.253Z,6.08
2022-11-03T03:07:16.403Z,6.24
2022-11-03T03:08:16.563Z,6
2022-11-03T03:09:16.711Z,6
2022-11-03T03:10:16.860Z,6
2022-11-03T03:11:16.974Z,5.84
2022-11-03T03:12:17.112Z,5.68
2022-11-03T03:13:17.266Z,5.68
2022-11-03T03:14:17.525Z,5.68
2022-11-03T03:15:17.629Z,5.52
2022-11-03T03:16:17.772Z,5.52
2022-11-03T03:17:17.928Z,5.6
2022-11-03T03:18:18.105Z,5.52
2022-11-03T03:19:18.231Z,5.52
2022-11-03T03:20:18.375Z,5.68
2022-11-03T03:21:18.527Z,5.6
2022-11-03T03:22:18.699Z,5.44
2022-11-03T03:23:19.000Z,5.28
2022-11-03T03:24:18.984Z,5.28
2022-11-03T03:25:19.138Z,5.2
2022-11-03T03:26:19.257Z,5.2
2022-11-03T03:27:19.496Z,5.44
2022-11-03T03:28:19.614Z,5.28
2022-11-03T03:29:19.751Z,5.44
2022-11-03T03:30:19.946Z,5.44
2022-11-03T03:31:20.063Z,5.52
2022-11-03T03:32:20.185Z,5.28
2022-11-03T03:33:20.397Z,5.52
2022-11-03T03:34:34.410Z,5.52
2022-11-03T03:35:20.656Z,5.52
2022-11-03T03:36:20.812Z,5.52
2022-11-03T03:37:20.964Z,5.52
2022-11-03T03:38:21.109Z,5.6
2022-11-03T03:39:21.219Z,5.44
2022-11-03T03:40:21.364Z,5.52
2022-11-03T03:41:21.551Z,5.44
2022-11-03T03:42:21.664Z,5.12
2022-11-03T03:43:21.823Z,5.2
2022-11-03T03:44:22.407Z,5.2
2022-11-03T03:45:22.388Z,5.44
2022-11-03T03:46:22.262Z,5.44
2022-11-03T03:47:23.043Z,5.28
2022-11-03T03:48:22.526Z,4.88
2022-11-03T03:49:22.661Z,4.72
2022-11-03T03:50:22.778Z,4.72
2022-11-03T03:51:22.900Z,4.08
2022-11-03T03:52:23.026Z,4.16
2022-11-03T03:53:23.183Z,4.88
2022-11-03T03:54:23.328Z,4.72
2022-11-03T03:56:25.247Z,4
2022-11-03T03:57:23.833Z,3.92
2022-11-03T03:58:23.985Z,3.68
2022-11-03T03:59:24.091Z,3.68
2022-11-03T04:00:24.244Z,4.88
2022-11-03T04:01:24.520Z,4.88
2022-11-03T04:02:24.651Z,5.52
2022-11-03T04:03:24.695Z,5.68
2022-11-03T04:04:24.804Z,5.92
2022-11-03T04:05:24.949Z,6
2022-11-03T04:06:25.104Z,6
2022-11-03T04:07:25.218Z,6.24
2022-11-03T04:08:25.358Z,6.4
2022-11-03T04:09:25.498Z,6.4
2022-11-03T04:10:25.657Z,6.32
2022-11-03T04:11:25.805Z,6.64
2022-11-03T04:12:25.964Z,6.48
2022-11-03T04:13:26.125Z,6.72
2022-11-03T04:14:26.278Z,6.72
2022-11-03T04:15:26.414Z,6.8
2022-11-03T04:16:26.561Z,6.8
2022-11-03T04:17:26.729Z,6.8
2022-11-03T04:18:26.881Z,6.8
2022-11-03T04:19:27.037Z,6.88
2022-11-03T04:20:27.184Z,6.8
2022-11-03T04:21:27.317Z,6.8
2022-11-03T04:22:27.508Z,6.8
2022-11-03T04:23:27.639Z,6.88
2022-11-03T04:24:27.782Z,7.04
2022-11-03T04:25:27.932Z,7.04
2022-11-03T04:26:28.093Z,7.12
2022-11-03T04:27:28.238Z,6.88
2022-11-03T04:28:28.397Z,7.04
2022-11-03T04:29:28.540Z,7.12
2022-11-03T04:30:28.695Z,7.2
2022-11-03T04:31:28.786Z,7.12
2022-11-03T04:32:28.958Z,6.88
2022-11-03T04:33:29.117Z,7.12
2022-11-03T04:34:29.259Z,7.12
2022-11-03T04:35:29.416Z,7.28
2022-11-03T04:36:29.569Z,7.44
2022-11-03T04:37:29.706Z,7.28
2022-11-03T04:38:29.862Z,7.2
2022-11-03T04:39:30.107Z,7.2
2022-11-03T04:40:30.124Z,7.12
2022-11-03T04:41:30.265Z,7.2
2022-11-03T04:42:30.423Z,7.28
2022-11-03T04:43:30.574Z,7.44
2022-11-03T04:44:30.728Z,7.6
2022-11-03T04:45:30.828Z,7.6
2022-11-03T04:46:30.980Z,7.52
2022-11-03T04:47:31.122Z,7.68
2022-11-03T04:48:31.273Z,7.52
2022-11-03T04:49:31.431Z,7.6
2022-11-03T04:50:31.580Z,7.52
2022-11-03T04:51:31.735Z,7.52
2022-11-03T04:52:31.843Z,7.28
2022-11-03T04:53:31.980Z,7.52
2022-11-03T04:54:32.137Z,7.6
2022-11-03T04:55:32.294Z,7.6
2022-11-03T04:56:32.442Z,7.84
2022-11-03T04:57:32.588Z,7.6
2022-11-03T04:58:32.691Z,7.44
2022-11-03T04:59:32.841Z,7.6
2022-11-03T05:00:32.998Z,7.6
2022-11-03T05:01:33.263Z,7.52
2022-11-03T05:02:33.257Z,7.44
2022-11-03T05:03:33.395Z,7.44
2022-11-03T05:04:33.562Z,7.44
2022-11-03T05:05:33.694Z,7.52
2022-11-03T05:06:33.854Z,7.44
2022-11-03T05:07:34.008Z,7.44
2022-11-03T05:08:34.148Z,7.28
2022-11-03T05:09:35.941Z,7.44
2022-11-03T05:10:34.413Z,7.28
2022-11-03T05:11:34.532Z,7.28
2022-11-03T05:12:34.661Z,7.28
2022-11-03T05:13:34.780Z,7.44
2022-11-03T05:14:34.930Z,7.52
2022-11-03T05:15:35.103Z,7.44
2022-11-03T05:16:35.216Z,7.28
2022-11-03T05:17:35.317Z,7.2
2022-11-03T05:18:35.505Z,7.44
2022-11-03T05:19:35.626Z,7.2
2022-11-03T05:20:36.457Z,7.28
2022-11-03T05:21:35.933Z,7.44
2022-11-03T05:22:36.029Z,7.52
2022-11-03T05:23:36.191Z,7.44
2022-11-03T05:24:36.342Z,7.28
2022-11-03T05:25:36.502Z,7.44
2022-11-03T05:26:36.662Z,7.44
2022-11-03T05:27:36.804Z,7.44
2022-11-03T05:28:36.952Z,7.28
2022-11-03T05:29:37.157Z,7.28
2022-11-03T05:30:37.235Z,7.28
2022-11-03T05:31:37.399Z,7.28
2022-11-03T05:32:37.547Z,7.52
2022-11-03T05:33:37.669Z,7.52
2022-11-03T05:34:37.747Z,7.52
2022-11-03T05:35:37.905Z,7.28
2022-11-03T05:36:38.051Z,7.28
2022-11-03T05:37:38.171Z,7.28
2022-11-03T05:38:38.308Z,7.52
2022-11-03T05:39:38.409Z,7.44
2022-11-03T05:40:38.575Z,7.44
2022-11-03T05:41:38.672Z,7.44
2022-11-03T05:42:38.829Z,7.44
2022-11-03T05:43:38.977Z,7.28
2022-11-03T05:44:39.129Z,7.52
2022-11-03T05:45:39.213Z,7.44
2022-11-03T05:46:39.314Z,7.52
2022-11-03T05:47:39.498Z,7.52
2022-11-03T05:48:39.620Z,7.2
2022-11-03T05:49:39.819Z,7.44
2022-11-03T05:50:39.930Z,7.52
2022-11-03T05:51:40.095Z,7.44
2022-11-03T05:52:40.246Z,7.2
2022-11-03T05:53:40.343Z,7.28
2022-11-03T05:54:40.489Z,7.28
2022-11-03T05:55:40.640Z,7.2
2022-11-03T05:56:40.793Z,7.04
2022-11-03T05:57:40.948Z,7.2
2022-11-03T05:58:41.137Z,7.2
2022-11-03T05:59:41.267Z,7.04
2022-11-03T06:00:45.582Z,7.12
2022-11-03T06:01:41.644Z,7.2
2022-11-03T06:02:41.684Z,7.2
2022-11-03T06:03:41.762Z,7.2
2022-11-03T06:04:41.929Z,7.12
2022-11-03T06:05:42.065Z,7.2
2022-11-03T06:06:42.222Z,7.2
2022-11-03T06:07:42.354Z,7.28
2022-11-03T06:08:43.297Z,7.28
2022-11-03T06:09:42.676Z,7.28
2022-11-03T06:10:42.763Z,7.2
2022-11-03T06:11:42.912Z,7.12
2022-11-03T06:12:43.017Z,7.12
2022-11-03T06:13:43.129Z,7.12
2022-11-03T06:14:43.318Z,7.12
2022-11-03T06:15:43.412Z,7.2
2022-11-03T06:16:43.582Z,7.2
2022-11-03T06:17:43.745Z,7.28
2022-11-03T06:18:43.867Z,7.28
2022-11-03T06:19:44.018Z,7.2
2022-11-03T06:20:44.186Z,7.12
2022-11-03T06:21:44.734Z,7.2
2022-11-03T06:22:44.460Z,7.12
2022-11-03T06:23:44.589Z,7.28
2022-11-03T06:24:44.739Z,7.2
2022-11-03T06:25:44.897Z,7.28
2022-11-03T06:26:45.039Z,7.28
2022-11-03T06:27:45.189Z,7.28
2022-11-03T06:28:45.351Z,7.44
2022-11-03T06:29:45.503Z,7.52
2022-11-03T06:30:45.649Z,7.28
2022-11-03T06:31:45.759Z,7.44
2022-11-03T06:32:45.903Z,7.28
2022-11-03T06:33:46.502Z,7.12
2022-11-03T06:34:46.162Z,7.44
2022-11-03T06:35:46.323Z,7.2
2022-11-03T06:36:46.455Z,7.44
2022-11-03T06:37:46.622Z,7.52
2022-11-03T06:38:46.761Z,7.52
2022-11-03T06:39:46.913Z,7.68
2022-11-03T06:40:47.081Z,7.68
2022-11-03T06:41:47.195Z,7.92
2022-11-03T06:42:47.318Z,8
2022-11-03T06:43:47.469Z,8
2022-11-03T06:44:47.600Z,8.08
2022-11-03T06:45:47.711Z,8.08
2022-11-03T06:46:47.886Z,8.24
2022-11-03T06:47:48.054Z,8.4
2022-11-03T06:48:48.185Z,8.72
2022-11-03T06:49:48.332Z,8.8
2022-11-03T06:50:48.495Z,8.88
2022-11-03T06:51:48.634Z,9.04
2022-11-03T06:53:49.682Z,9.04
2022-11-03T06:54:48.982Z,9.36
2022-11-03T06:55:49.140Z,9.599999
2022-11-03T06:56:49.248Z,9.679999
2022-11-03T06:57:49.384Z,9.679999
2022-11-03T06:58:49.534Z,9.92
2022-11-03T06:59:53.556Z,9.92
2022-11-03T07:00:51.482Z,10
2022-11-03T07:01:50.143Z,10.24
2022-11-03T07:02:50.150Z,10.24
2022-11-03T07:03:50.298Z,10
2022-11-03T07:04:50.449Z,9.84
2022-11-03T07:05:50.561Z,10
2022-11-03T07:06:53.157Z,10
2022-11-03T07:07:50.826Z,9.84
2022-11-03T07:08:50.952Z,9.92
2022-11-03T07:09:51.065Z,10.24
2022-11-03T07:10:51.209Z,10.32
2022-11-03T07:11:51.374Z,10.4
2022-11-03T07:12:51.473Z,10.32
2022-11-03T07:13:51.634Z,10.32
2022-11-03T07:14:51.785Z,10.88
2022-11-03T07:15:51.908Z,11.12
2022-11-03T07:16:52.021Z,10.88
2022-11-03T07:17:52.220Z,10.719999
2022-11-03T07:18:52.375Z,10.719999
2022-11-03T07:19:52.481Z,10.639999
2022-11-03T07:20:52.627Z,10.88
2022-11-03T07:21:52.988Z,10.719999
2022-11-03T07:22:53.146Z,10.719999
2022-11-03T07:23:53.284Z,10.719999
2022-11-03T07:24:53.518Z,10.48
2022-11-03T07:25:53.648Z,10.719999
2022-11-03T07:26:53.792Z,10.88
2022-11-03T07:27:53.951Z,11.04
2022-11-03T07:28:54.120Z,11.2
2022-11-03T07:29:54.259Z,11.679999
2022-11-03T07:30:54.442Z,12.719999
2022-11-03T07:31:54.551Z,12.32
2022-11-03T07:32:54.703Z,11.599999
2022-11-03T07:33:54.846Z,11.2
2022-11-03T07:34:55.006Z,11.44
2022-11-03T07:36:14.122Z,11.44
2022-11-03T07:36:55.812Z,11.04
2022-11-03T07:37:55.486Z,11.12
2022-11-03T07:38:55.626Z,11.28
2022-11-03T07:39:55.775Z,11.2
2022-11-03T07:40:55.923Z,11.28
2022-11-03T07:41:55.984Z,11.2
2022-11-03T07:42:56.152Z,11.28
2022-11-03T07:43:56.295Z,11.679999
2022-11-03T07:44:56.446Z,11.92
2022-11-03T07:45:56.561Z,11.44
2022-11-03T07:46:56.726Z,11.04
2022-11-03T07:47:59.340Z,11.04
2022-11-03T07:48:57.023Z,11.04
2022-11-03T07:49:57.522Z,10.88
2022-11-03T07:50:57.662Z,11.04
2022-11-03T07:51:57.426Z,10.88
2022-11-03T07:52:57.972Z,10.8
2022-11-03T07:53:57.713Z,11.04
2022-11-03T07:54:57.829Z,11.12
2022-11-03T07:55:58.014Z,11.12
2022-11-03T07:56:58.141Z,11.12
2022-11-03T07:57:58.304Z,11.52
2022-11-03T07:58:58.456Z,11.84
2022-11-03T07:59:58.597Z,11.52
2022-11-03T08:00:58.738Z,11.28
2022-11-03T08:01:59.055Z,11.28
2022-11-03T08:02:59.001Z,11.52
2022-11-03T08:03:59.173Z,11.599999
2022-11-03T08:04:59.264Z,11.44
2022-11-03T08:05:59.428Z,11.52
2022-11-03T08:06:59.558Z,11.44
2022-11-03T08:07:59.708Z,11.92
2022-11-03T08:08:59.841Z,12
2022-11-03T08:09:59.995Z,11.84
2022-11-03T08:11:00.170Z,12
2022-11-03T08:12:00.269Z,12
2022-11-03T08:13:00.402Z,12
2022-11-03T08:14:00.580Z,11.84
2022-11-03T08:15:00.733Z,12
2022-11-03T08:16:00.863Z,12
2022-11-03T08:17:00.993Z,12.08
2022-11-03T08:18:01.104Z,11.84
2022-11-03T08:19:01.236Z,12.08
2022-11-03T08:20:01.377Z,12.48
2022-11-03T08:21:01.538Z,12.48
2022-11-03T08:22:01.634Z,12.4
2022-11-03T08:23:25.087Z,12.4
2022-11-03T08:24:01.886Z,12.32
2022-11-03T08:25:02.012Z,12
2022-11-03T08:26:02.153Z,11.92
2022-11-03T08:27:02.304Z,12.08
2022-11-03T08:28:02.469Z,11.679999
2022-11-03T08:29:02.587Z,11.52
2022-11-03T08:30:02.739Z,11.44
2022-11-03T08:31:05.615Z,11.599999
2022-11-03T08:32:02.990Z,11.599999
2022-11-03T08:33:03.209Z,11.679999
2022-11-03T08:34:03.293Z,11.679999
2022-11-03T08:35:03.455Z,11.84
2022-11-03T08:36:03.617Z,11.84
2022-11-03T08:37:03.727Z,11.52
2022-11-03T08:38:04.034Z,11.28
2022-11-03T08:39:04.017Z,11.28
2022-11-03T08:40:04.161Z,11.28
2022-11-03T08:41:04.319Z,11.52
2022-11-03T08:42:04.433Z,11.44
2022-11-03T08:43:04.566Z,11.44
2022-11-03T08:44:04.753Z,11.52
2022-11-03T08:45:04.898Z,11.599999
2022-11-03T08:46:12.936Z,11.599999
2022-11-03T08:47:05.144Z,11.599999
2022-11-03T08:48:05.591Z,11.599999
2022-11-03T08:49:05.439Z,11.599999
2022-11-03T08:50:05.580Z,11.679999
2022-11-03T08:51:05.738Z,11.679999
2022-11-03T08:52:05.890Z,11.92
2022-11-03T08:53:06.039Z,11.84
2022-11-03T08:54:06.190Z,11.92
2022-11-03T08:55:06.294Z,11.92
2022-11-03T08:56:08.831Z,12
2022-11-03T08:57:06.531Z,12
2022-11-03T08:58:06.935Z,11.92
2022-11-03T08:59:06.850Z,11.92
2022-11-03T09:00:07.002Z,12
2022-11-03T09:01:07.131Z,12
2022-11-03T09:02:07.404Z,12.24
2022-11-03T09:03:07.473Z,12.08
2022-11-03T09:04:07.661Z,12.24
2022-11-03T09:05:07.760Z,12.4
2022-11-03T09:06:07.946Z,12.32
2022-11-03T09:07:08.050Z,12.24
2022-11-03T09:11:09.344Z,12.4
2022-11-03T09:12:08.854Z,12.32
2022-11-03T09:13:09.323Z,12.4
2022-11-03T09:14:09.169Z,12.48
2022-11-03T09:15:09.318Z,12.4
2022-11-03T09:16:09.468Z,12.4
2022-11-03T09:17:09.579Z,12.4
2022-11-03T09:18:09.931Z,12.719999
2022-11-03T09:19:09.826Z,12.4
2022-11-03T09:20:09.974Z,12.32
2022-11-03T09:21:10.125Z,12.48
2022-11-03T09:22:10.277Z,12.799999
2022-11-03T09:23:10.462Z,12.639999
2022-11-03T09:24:10.607Z,12.4
2022-11-03T09:25:10.711Z,12.639999
2022-11-03T09:26:10.879Z,12.639999
2022-11-03T09:27:10.996Z,12.639999
2022-11-03T09:28:11.232Z,12.799999
2022-11-03T09:29:11.294Z,12.719999
2022-11-03T09:30:13.780Z,12.639999
2022-11-03T09:31:11.588Z,12.639999
2022-11-03T09:32:11.777Z,12.639999
2022-11-03T09:33:11.903Z,12.639999
2022-11-03T09:34:12.053Z,12.88
2022-11-03T09:35:12.205Z,12.88
2022-11-03T09:36:12.360Z,12.88
2022-11-03T09:37:12.532Z,12.719999
2022-11-03T09:38:12.608Z,12.88
2022-11-03T09:39:12.757Z,13.12
2022-11-03T09:40:12.963Z,13.04
2022-11-03T09:41:18.485Z,13.04
2022-11-03T09:42:13.218Z,13.12
2022-11-03T09:43:13.371Z,13.12
2022-11-03T09:44:13.533Z,13.12
2022-11-03T09:45:13.679Z,13.04
2022-11-03T09:46:13.831Z,12.88
2022-11-03T09:47:13.926Z,12.719999
2022-11-03T09:48:14.092Z,12.719999
2022-11-03T09:49:14.240Z,12.48
2022-11-03T09:50:14.399Z,12.799999
2022-11-03T09:51:14.532Z,12.799999
2022-11-03T09:52:14.707Z,12.719999
2022-11-03T09:53:14.864Z,12.88
2022-11-03T09:54:14.992Z,12.719999
2022-11-03T09:55:15.134Z,13.04
2022-11-03T09:56:15.288Z,13.12
2022-11-03T09:57:15.539Z,13.12
2022-11-03T09:58:15.758Z,13.12
2022-11-03T09:59:15.908Z,13.28
2022-11-03T10:00:15.971Z,13.44
2022-11-03T10:01:16.205Z,13.44
2022-11-03T10:02:16.307Z,13.52
2022-11-03T10:03:16.412Z,13.12
2022-11-03T10:04:16.567Z,13.12
2022-11-03T10:06:16.914Z,13.2
2022-11-03T10:07:16.993Z,13.04
2022-11-03T10:08:19.891Z,13.2
2022-11-03T10:09:17.488Z,13.679999
2022-11-03T10:10:17.617Z,13.84
2022-11-03T10:11:17.709Z,13.2
2022-11-03T10:12:17.819Z,13.28
2022-11-03T10:13:17.976Z,13.52
2022-11-03T10:14:18.142Z,13.44
2022-11-03T10:15:18.290Z,13.2
2022-11-03T10:16:18.424Z,13.28
2022-11-03T10:17:18.524Z,13.28
2022-11-03T10:18:18.690Z,13.28
2022-11-03T10:19:18.867Z,13.2
2022-11-03T10:20:19.040Z,13.12
2022-11-03T10:21:19.103Z,13.04
2022-11-03T10:22:19.235Z,13.04
2022-11-03T10:23:19.406Z,13.12
2022-11-03T10:24:19.496Z,13.28
2022-11-03T10:25:19.665Z,13.28
2022-11-03T10:26:19.788Z,13.52
2022-11-03T10:27:19.940Z,13.679999
2022-11-03T10:28:20.114Z,13.599999
2022-11-03T10:30:20.393Z,13.679999
2022-11-03T10:31:20.552Z,13.679999
2022-11-03T10:32:20.693Z,13.599999
2022-11-03T10:33:20.796Z,14.08
2022-11-03T10:34:20.963Z,13.92
2022-11-03T10:35:21.137Z,14
2022-11-03T10:36:21.263Z,13.84
2022-11-03T10:37:21.403Z,13.679999
2022-11-03T10:38:21.580Z,13.84
2022-11-03T10:39:21.729Z,13.84
2022-11-03T10:40:46.495Z,14
2022-11-03T10:41:22.020Z,13.92
2022-11-03T10:42:22.171Z,13.92
2022-11-03T10:43:22.277Z,14.08
2022-11-03T10:44:22.447Z,13.92
2022-11-03T10:45:22.529Z,13.92
2022-11-03T10:46:44.480Z,13.84
2022-11-03T10:47:22.776Z,14.24
2022-11-03T10:48:22.886Z,14.719999
2022-11-03T10:49:22.982Z,14.24
2022-11-03T10:50:23.173Z,14.08
2022-11-03T10:51:23.261Z,14.4
2022-11-03T10:52:23.479Z,14.32
2022-11-03T10:53:23.584Z,14.08
2022-11-03T10:54:23.705Z,14.24
2022-11-03T10:55:24.914Z,14.08
2022-11-03T10:56:23.999Z,14.08
2022-11-03T10:57:24.148Z,14.719999
2022-11-03T10:58:24.297Z,14.48
2022-11-03T10:59:24.453Z,14.639999
2022-11-03T11:00:24.607Z,14.719999
2022-11-03T11:01:24.925Z,14.639999
2022-11-03T11:02:24.899Z,14.719999
2022-11-03T11:03:24.987Z,14.639999
2022-11-03T11:04:25.128Z,14.719999
2022-11-03T11:05:25.203Z,14.639999
2022-11-03T11:06:25.353Z,15.04
2022-11-03T11:07:25.498Z,14.88
2022-11-03T11:08:25.713Z,14.719999
2022-11-03T11:09:25.783Z,14.88
2022-11-03T11:10:25.922Z,15.12
2022-11-03T11:11:26.064Z,15.28
2022-11-03T11:12:26.222Z,15.12
2022-11-03T11:13:26.373Z,15.679999
2022-11-03T11:14:26.521Z,15.679999
2022-11-03T11:15:26.671Z,15.28
2022-11-03T11:16:26.815Z,15.2
2022-11-03T11:17:26.969Z,15.12
2022-11-03T11:18:27.080Z,15.12
2022-11-03T11:19:27.246Z,15.28
2022-11-03T11:20:27.373Z,15.28
2022-11-03T11:21:29.639Z,15.679999
2022-11-03T11:22:27.684Z,15.2
2022-11-03T11:23:27.846Z,14.799999
2022-11-03T11:24:27.994Z,15.12
2022-11-03T11:25:28.141Z,15.599999
2022-11-03T11:26:28.249Z,15.04
2022-11-03T11:27:28.420Z,14.48
2022-11-03T11:28:28.545Z,15.12
2022-11-03T11:29:28.707Z,15.12
2022-11-03T11:30:28.808Z,14.799999
2022-11-03T11:31:28.937Z,14.719999
2022-11-03T11:32:29.058Z,14.639999
2022-11-03T11:33:29.209Z,14.799999
2022-11-03T11:34:29.359Z,14.719999
2022-11-03T11:35:29.490Z,14.639999
2022-11-03T11:36:29.596Z,14.799999
2022-11-03T11:37:29.761Z,14.88
2022-11-03T11:38:29.908Z,15.04
2022-11-03T11:39:30.069Z,15.12
2022-11-03T11:40:30.177Z,15.04
2022-11-03T11:41:30.268Z,15.04
2022-11-03T11:42:31.419Z,14.719999
2022-11-03T11:43:30.576Z,14.88
2022-11-03T11:44:30.724Z,14.719999
2022-11-03T11:45:30.878Z,14.799999
2022-11-03T11:46:31.020Z,14.88
2022-11-03T11:47:31.146Z,14.719999
2022-11-03T11:48:31.284Z,14.719999
2022-11-03T11:49:31.430Z,14.48
2022-11-03T11:50:31.602Z,14.639999
2022-11-03T11:51:31.737Z,14.799999
2022-11-03T11:52:31.893Z,14.639999
2022-11-03T11:53:32.106Z,14.48
2022-11-03T11:54:32.151Z,14.48
2022-11-03T11:55:32.247Z,14.639999
2022-11-03T11:56:32.355Z,14.4
2022-11-03T11:57:32.505Z,14.32
2022-11-03T11:58:32.649Z,14.32
2022-11-03T11:59:32.759Z,14.799999
2022-11-03T12:00:32.908Z,14.88
2022-11-03T12:01:33.128Z,14.88
2022-11-03T12:02:33.153Z,15.12
2022-11-03T12:03:33.350Z,15.52
2022-11-03T12:04:33.482Z,15.839999
2022-11-03T12:05:33.620Z,15.679999
2022-11-03T12:06:33.822Z,15.839999
2022-11-03T12:07:33.908Z,15.679999
2022-11-03T12:08:34.011Z,15.679999
2022-11-03T12:09:34.173Z,15.679999
2022-11-03T12:10:34.328Z,15.599999
2022-11-03T12:11:34.525Z,15.92
2022-11-03T12:12:34.620Z,16.32
2022-11-03T12:13:34.778Z,16.32
2022-11-03T12:14:34.883Z,15.92
2022-11-03T12:15:35.009Z,15.679999
2022-11-03T12:16:35.177Z,15.2
2022-11-03T12:17:35.334Z,15.52
2022-11-03T12:18:39.506Z,15.2
2022-11-03T12:19:35.636Z,15.04
2022-11-03T12:20:35.723Z,14.88
2022-11-03T12:21:35.949Z,15.12
2022-11-03T12:22:36.058Z,14.799999
2022-11-03T12:23:36.179Z,15.28
2022-11-03T12:24:36.349Z,15.04
2022-11-03T12:25:36.499Z,15.04
2022-11-03T12:26:36.647Z,15.04
2022-11-03T12:27:36.799Z,14.88
2022-11-03T12:28:36.904Z,14.799999
2022-11-03T12:29:37.051Z,14.88
2022-11-03T12:30:39.807Z,14.799999
2022-11-03T12:31:37.301Z,14.88
2022-11-03T12:32:37.515Z,15.44
2022-11-03T12:33:37.608Z,15.12
2022-11-03T12:34:37.760Z,14.799999
2022-11-03T12:35:37.913Z,15.04
2022-11-03T12:36:38.071Z,15.04
2022-11-03T12:37:38.172Z,14.639999
2022-11-03T12:38:38.320Z,14.639999
2022-11-03T12:39:38.420Z,15.04
2022-11-03T12:40:38.556Z,14.88
2022-11-03T12:41:38.719Z,14.799999
2022-11-03T12:42:38.876Z,14.4
2022-11-03T12:43:38.971Z,14.32
2022-11-03T12:44:42.747Z,14.24
2022-11-03T12:45:39.259Z,14.32
2022-11-03T12:46:39.375Z,14.32
2022-11-03T12:47:39.534Z,14.08
2022-11-03T12:48:39.684Z,14.4
2022-11-03T12:49:39.836Z,14.24
2022-11-03T12:50:39.983Z,14.32
2022-11-03T12:51:40.133Z,14
2022-11-03T12:52:40.290Z,13.92
2022-11-03T12:53:40.448Z,14
2022-11-03T12:54:40.566Z,14.08
2022-11-03T12:55:42.194Z,14
2022-11-03T12:56:40.846Z,14
2022-11-03T12:57:41.001Z,14
2022-11-03T12:58:41.146Z,13.92
2022-11-03T12:59:41.259Z,14.08
2022-11-03T13:00:41.426Z,14.08
2022-11-03T13:01:41.608Z,13.92
2022-11-03T13:02:41.848Z,13.92
2022-11-03T13:03:41.847Z,13.84
2022-11-03T13:04:42.007Z,13.599999
2022-11-03T13:05:42.156Z,13.679999
2022-11-03T13:06:42.314Z,13.679999
2022-11-03T13:07:42.459Z,13.679999
2022-11-03T13:08:42.604Z,13.679999
2022-11-03T13:09:42.764Z,13.679999
2022-11-03T13:10:42.917Z,14.08
2022-11-03T13:11:43.073Z,13.92
2022-11-03T13:12:43.267Z,14